sensor_id;sensor_type;location;lat;lon;timestamp;P1;durP1;ratioP1;P2;durP2;ratioP2
67585;SDS011;55785;47.946;20.540;2023-07-02T00:01:56;9.32;;;5.47;;
67585;SDS011;55785;47.946;20.540;2023-07-02T00:04:21;9.32;;;5.43;;
67585;SDS011;55785;47.946;20.540;2023-07-02T00:06:46;7.50;;;5.50;;
67585;SDS011;55785;47.946;20.540;2023-07-02T00:09:12;7.22;;;5.80;;
67585;SDS011;55785;47.946;20.540;2023-07-02T00:11:38;7.75;;;6.03;;
67585;SDS011;55785;47.946;20.540;2023-07-02T00:14:08;6.97;;;5.65;;
67585;SDS011;55785;47.946;20.540;2023-07-02T00:16:35;11.68;;;5.88;;
67585;SDS011;55785;47.946;20.540;2023-07-02T00:19:02;11.30;;;5.63;;
67585;SDS011;55785;47.946;20.540;2023-07-02T00:21:27;7.93;;;5.72;;
67585;SDS011;55785;47.946;20.540;2023-07-02T00:23:52;5.85;;;5.05;;
67585;SDS011;55785;47.946;20.540;2023-07-02T00:26:20;10.43;;;5.78;;
67585;SDS011;55785;47.946;20.540;2023-07-02T00:28:46;6.60;;;5.70;;
67585;SDS011;55785;47.946;20.540;2023-07-02T00:31:11;6.72;;;5.28;;
67585;SDS011;55785;47.946;20.540;2023-07-02T00:33:36;8.88;;;5.78;;
67585;SDS011;55785;47.946;20.540;2023-07-02T00:36:02;7.90;;;5.25;;
67585;SDS011;55785;47.946;20.540;2023-07-02T00:38:27;7.47;;;5.90;;
67585;SDS011;55785;47.946;20.540;2023-07-02T00:40:53;7.90;;;5.72;;
67585;SDS011;55785;47.946;20.540;2023-07-02T00:43:18;8.25;;;5.53;;
67585;SDS011;55785;47.946;20.540;2023-07-02T00:45:44;7.47;;;5.78;;
67585;SDS011;55785;47.946;20.540;2023-07-02T00:48:09;9.23;;;5.68;;
67585;SDS011;55785;47.946;20.540;2023-07-02T00:50:35;9.10;;;5.70;;
67585;SDS011;55785;47.946;20.540;2023-07-02T00:53:00;7.45;;;5.60;;
67585;SDS011;55785;47.946;20.540;2023-07-02T00:55:26;8.95;;;5.65;;
67585;SDS011;55785;47.946;20.540;2023-07-02T00:57:51;9.23;;;5.28;;
67585;SDS011;55785;47.946;20.540;2023-07-02T01:00:16;7.95;;;5.82;;
67585;SDS011;55785;47.946;20.540;2023-07-02T01:02:42;7.20;;;5.70;;
67585;SDS011;55785;47.946;20.540;2023-07-02T01:05:07;7.00;;;5.40;;
67585;SDS011;55785;47.946;20.540;2023-07-02T01:07:33;7.32;;;5.90;;
67585;SDS011;55785;47.946;20.540;2023-07-02T01:09:58;9.85;;;5.38;;
67585;SDS011;55785;47.946;20.540;2023-07-02T01:12:23;5.70;;;4.85;;
67585;SDS011;55785;47.946;20.540;2023-07-02T01:14:51;9.10;;;5.63;;
67585;SDS011;55785;47.946;20.540;2023-07-02T01:17:18;7.80;;;5.32;;
67585;SDS011;55785;47.946;20.540;2023-07-02T01:19:54;9.20;;;5.30;;
67585;SDS011;55785;47.946;20.540;2023-07-02T01:22:23;8.25;;;5.38;;
67585;SDS011;55785;47.946;20.540;2023-07-02T01:24:52;7.90;;;5.35;;
67585;SDS011;55785;47.946;20.540;2023-07-02T01:27:19;9.82;;;5.60;;
67585;SDS011;55785;47.946;20.540;2023-07-02T01:29:45;9.75;;;5.68;;
67585;SDS011;55785;47.946;20.540;2023-07-02T01:32:11;8.95;;;5.38;;
67585;SDS011;55785;47.946;20.540;2023-07-02T01:34:36;6.78;;;5.53;;
67585;SDS011;55785;47.946;20.540;2023-07-02T01:37:04;10.32;;;5.80;;
67585;SDS011;55785;47.946;20.540;2023-07-02T01:39:29;7.18;;;5.28;;
67585;SDS011;55785;47.946;20.540;2023-07-02T01:42:06;7.90;;;5.78;;
67585;SDS011;55785;47.946;20.540;2023-07-02T01:44:42;9.88;;;6.38;;
67585;SDS011;55785;47.946;20.540;2023-07-02T01:47:11;9.23;;;5.60;;
67585;SDS011;55785;47.946;20.540;2023-07-02T01:49:37;7.68;;;5.45;;
67585;SDS011;55785;47.946;20.540;2023-07-02T01:52:03;10.85;;;5.70;;
67585;SDS011;55785;47.946;20.540;2023-07-02T01:54:29;8.27;;;5.50;;
67585;SDS011;55785;47.946;20.540;2023-07-02T01:56:55;8.98;;;5.72;;
67585;SDS011;55785;47.946;20.540;2023-07-02T01:59:21;8.88;;;5.53;;
67585;SDS011;55785;47.946;20.540;2023-07-02T02:01:46;8.13;;;5.80;;
67585;SDS011;55785;47.946;20.540;2023-07-02T02:04:12;6.43;;;5.32;;
67585;SDS011;55785;47.946;20.540;2023-07-02T02:06:38;7.22;;;5.25;;
67585;SDS011;55785;47.946;20.540;2023-07-02T02:09:04;8.23;;;5.25;;
67585;SDS011;55785;47.946;20.540;2023-07-02T02:11:30;7.65;;;5.40;;
67585;SDS011;55785;47.946;20.540;2023-07-02T02:13:57;6.80;;;5.50;;
67585;SDS011;55785;47.946;20.540;2023-07-02T02:16:23;7.10;;;5.53;;
67585;SDS011;55785;47.946;20.540;2023-07-02T02:18:48;7.00;;;5.47;;
67585;SDS011;55785;47.946;20.540;2023-07-02T02:21:14;11.23;;;5.78;;
67585;SDS011;55785;47.946;20.540;2023-07-02T02:23:39;9.50;;;5.55;;
67585;SDS011;55785;47.946;20.540;2023-07-02T02:26:04;6.40;;;5.32;;
67585;SDS011;55785;47.946;20.540;2023-07-02T02:28:30;9.38;;;5.72;;
67585;SDS011;55785;47.946;20.540;2023-07-02T02:30:55;7.28;;;5.57;;
67585;SDS011;55785;47.946;20.540;2023-07-02T02:33:21;8.27;;;5.70;;
67585;SDS011;55785;47.946;20.540;2023-07-02T02:35:46;6.80;;;5.13;;
67585;SDS011;55785;47.946;20.540;2023-07-02T02:38:12;7.15;;;5.47;;
67585;SDS011;55785;47.946;20.540;2023-07-02T02:40:37;8.77;;;5.57;;
67585;SDS011;55785;47.946;20.540;2023-07-02T02:43:02;7.85;;;5.50;;
67585;SDS011;55785;47.946;20.540;2023-07-02T02:45:28;9.65;;;5.65;;
67585;SDS011;55785;47.946;20.540;2023-07-02T02:47:53;7.22;;;5.53;;
67585;SDS011;55785;47.946;20.540;2023-07-02T02:50:18;8.35;;;5.47;;
67585;SDS011;55785;47.946;20.540;2023-07-02T02:52:44;7.90;;;5.53;;
67585;SDS011;55785;47.946;20.540;2023-07-02T02:55:09;7.88;;;5.80;;
67585;SDS011;55785;47.946;20.540;2023-07-02T02:57:35;7.55;;;5.50;;
67585;SDS011;55785;47.946;20.540;2023-07-02T03:00:00;7.05;;;5.47;;
67585;SDS011;55785;47.946;20.540;2023-07-02T03:02:25;8.02;;;5.15;;
67585;SDS011;55785;47.946;20.540;2023-07-02T03:04:51;7.78;;;5.57;;
67585;SDS011;55785;47.946;20.540;2023-07-02T03:07:16;9.57;;;5.53;;
67585;SDS011;55785;47.946;20.540;2023-07-02T03:09:42;7.43;;;5.30;;
67585;SDS011;55785;47.946;20.540;2023-07-02T03:12:07;6.88;;;5.00;;
67585;SDS011;55785;47.946;20.540;2023-07-02T03:14:33;6.88;;;5.30;;
67585;SDS011;55785;47.946;20.540;2023-07-02T03:16:58;6.40;;;5.00;;
67585;SDS011;55785;47.946;20.540;2023-07-02T03:19:24;8.60;;;5.65;;
67585;SDS011;55785;47.946;20.540;2023-07-02T03:21:49;7.15;;;5.50;;
67585;SDS011;55785;47.946;20.540;2023-07-02T03:24:14;8.55;;;5.65;;
67585;SDS011;55785;47.946;20.540;2023-07-02T03:26:40;8.05;;;5.20;;
67585;SDS011;55785;47.946;20.540;2023-07-02T03:29:06;7.15;;;5.60;;
67585;SDS011;55785;47.946;20.540;2023-07-02T03:31:31;7.88;;;5.40;;
67585;SDS011;55785;47.946;20.540;2023-07-02T03:33:57;7.38;;;5.30;;
67585;SDS011;55785;47.946;20.540;2023-07-02T03:36:22;7.65;;;5.50;;
67585;SDS011;55785;47.946;20.540;2023-07-02T03:38:47;10.10;;;5.43;;
67585;SDS011;55785;47.946;20.540;2023-07-02T03:41:13;9.38;;;5.40;;
67585;SDS011;55785;47.946;20.540;2023-07-02T03:43:38;9.45;;;5.88;;
67585;SDS011;55785;47.946;20.540;2023-07-02T03:46:04;7.03;;;5.38;;
67585;SDS011;55785;47.946;20.540;2023-07-02T03:48:29;7.22;;;5.60;;
67585;SDS011;55785;47.946;20.540;2023-07-02T03:50:54;7.53;;;5.50;;
67585;SDS011;55785;47.946;20.540;2023-07-02T03:53:19;7.03;;;5.25;;
67585;SDS011;55785;47.946;20.540;2023-07-02T03:55:45;9.35;;;5.80;;
67585;SDS011;55785;47.946;20.540;2023-07-02T03:58:10;6.32;;;5.22;;
67585;SDS011;55785;47.946;20.540;2023-07-02T04:00:35;6.25;;;5.28;;
67585;SDS011;55785;47.946;20.540;2023-07-02T04:03:01;7.93;;;5.72;;
67585;SDS011;55785;47.946;20.540;2023-07-02T04:05:26;10.25;;;5.40;;
67585;SDS011;55785;47.946;20.540;2023-07-02T04:07:52;8.55;;;5.35;;
67585;SDS011;55785;47.946;20.540;2023-07-02T04:10:17;7.38;;;5.63;;
67585;SDS011;55785;47.946;20.540;2023-07-02T04:12:42;7.10;;;5.00;;
67585;SDS011;55785;47.946;20.540;2023-07-02T04:15:08;6.18;;;5.43;;
67585;SDS011;55785;47.946;20.540;2023-07-02T04:17:34;7.47;;;5.53;;
67585;SDS011;55785;47.946;20.540;2023-07-02T04:19:59;7.22;;;5.50;;
67585;SDS011;55785;47.946;20.540;2023-07-02T04:22:26;7.22;;;5.32;;
67585;SDS011;55785;47.946;20.540;2023-07-02T04:24:51;7.63;;;5.05;;
67585;SDS011;55785;47.946;20.540;2023-07-02T04:27:16;7.03;;;4.60;;
67585;SDS011;55785;47.946;20.540;2023-07-02T04:29:42;6.03;;;5.00;;
67585;SDS011;55785;47.946;20.540;2023-07-02T04:32:09;7.85;;;5.60;;
67585;SDS011;55785;47.946;20.540;2023-07-02T04:34:34;8.20;;;5.38;;
67585;SDS011;55785;47.946;20.540;2023-07-02T04:36:59;7.32;;;5.40;;
67585;SDS011;55785;47.946;20.540;2023-07-02T04:39:25;10.57;;;5.88;;
67585;SDS011;55785;47.946;20.540;2023-07-02T04:41:50;7.47;;;5.13;;
67585;SDS011;55785;47.946;20.540;2023-07-02T04:44:15;8.13;;;6.05;;
67585;SDS011;55785;47.946;20.540;2023-07-02T04:46:40;6.72;;;5.30;;
67585;SDS011;55785;47.946;20.540;2023-07-02T04:49:06;6.90;;;5.25;;
67585;SDS011;55785;47.946;20.540;2023-07-02T04:51:31;7.05;;;5.30;;
67585;SDS011;55785;47.946;20.540;2023-07-02T04:53:56;7.50;;;5.05;;
67585;SDS011;55785;47.946;20.540;2023-07-02T04:56:22;9.60;;;5.68;;
67585;SDS011;55785;47.946;20.540;2023-07-02T04:58:47;6.57;;;4.88;;
67585;SDS011;55785;47.946;20.540;2023-07-02T05:01:13;7.35;;;5.35;;
67585;SDS011;55785;47.946;20.540;2023-07-02T05:03:38;6.07;;;5.18;;
67585;SDS011;55785;47.946;20.540;2023-07-02T05:06:03;5.60;;;4.90;;
67585;SDS011;55785;47.946;20.540;2023-07-02T05:08:29;6.85;;;4.95;;
67585;SDS011;55785;47.946;20.540;2023-07-02T05:10:54;7.53;;;5.22;;
67585;SDS011;55785;47.946;20.540;2023-07-02T05:13:19;6.90;;;5.10;;
67585;SDS011;55785;47.946;20.540;2023-07-02T05:15:45;6.18;;;5.30;;
67585;SDS011;55785;47.946;20.540;2023-07-02T05:18:10;7.07;;;5.25;;
67585;SDS011;55785;47.946;20.540;2023-07-02T05:20:35;7.18;;;5.03;;
67585;SDS011;55785;47.946;20.540;2023-07-02T05:23:01;6.00;;;4.82;;
67585;SDS011;55785;47.946;20.540;2023-07-02T05:25:26;6.00;;;5.05;;
67585;SDS011;55785;47.946;20.540;2023-07-02T05:27:51;7.03;;;5.65;;
67585;SDS011;55785;47.946;20.540;2023-07-02T05:30:17;6.30;;;5.70;;
67585;SDS011;55785;47.946;20.540;2023-07-02T05:32:42;8.15;;;5.05;;
67585;SDS011;55785;47.946;20.540;2023-07-02T05:35:07;7.22;;;5.60;;
67585;SDS011;55785;47.946;20.540;2023-07-02T05:37:33;6.80;;;5.35;;
67585;SDS011;55785;47.946;20.540;2023-07-02T05:39:58;6.43;;;5.65;;
67585;SDS011;55785;47.946;20.540;2023-07-02T05:42:23;7.75;;;5.72;;
67585;SDS011;55785;47.946;20.540;2023-07-02T05:44:49;6.95;;;5.68;;
67585;SDS011;55785;47.946;20.540;2023-07-02T05:47:15;6.93;;;6.20;;
67585;SDS011;55785;47.946;20.540;2023-07-02T05:49:43;6.57;;;5.95;;
67585;SDS011;55785;47.946;20.540;2023-07-02T05:52:08;8.38;;;6.38;;
67585;SDS011;55785;47.946;20.540;2023-07-02T05:54:34;10.30;;;6.55;;
67585;SDS011;55785;47.946;20.540;2023-07-02T05:56:59;6.45;;;5.75;;
67585;SDS011;55785;47.946;20.540;2023-07-02T05:59:24;6.30;;;5.70;;
67585;SDS011;55785;47.946;20.540;2023-07-02T06:01:49;6.65;;;5.63;;
67585;SDS011;55785;47.946;20.540;2023-07-02T06:04:15;10.48;;;5.90;;
67585;SDS011;55785;47.946;20.540;2023-07-02T06:06:40;7.57;;;5.72;;
67585;SDS011;55785;47.946;20.540;2023-07-02T06:09:06;6.30;;;5.60;;
67585;SDS011;55785;47.946;20.540;2023-07-02T06:11:31;6.50;;;5.38;;
67585;SDS011;55785;47.946;20.540;2023-07-02T06:13:56;7.03;;;5.07;;
67585;SDS011;55785;47.946;20.540;2023-07-02T06:16:22;6.95;;;5.90;;
67585;SDS011;55785;47.946;20.540;2023-07-02T06:18:47;7.20;;;5.07;;
67585;SDS011;55785;47.946;20.540;2023-07-02T06:21:12;5.85;;;5.18;;
67585;SDS011;55785;47.946;20.540;2023-07-02T06:23:44;8.73;;;5.45;;
67585;SDS011;55785;47.946;20.540;2023-07-02T06:26:10;8.68;;;6.13;;
67585;SDS011;55785;47.946;20.540;2023-07-02T06:28:35;7.53;;;6.20;;
67585;SDS011;55785;47.946;20.540;2023-07-02T06:31:01;7.25;;;6.28;;
67585;SDS011;55785;47.946;20.540;2023-07-02T06:33:26;8.10;;;5.88;;
67585;SDS011;55785;47.946;20.540;2023-07-02T06:35:52;7.43;;;5.55;;
67585;SDS011;55785;47.946;20.540;2023-07-02T06:38:17;9.07;;;5.82;;
67585;SDS011;55785;47.946;20.540;2023-07-02T06:40:42;7.88;;;6.07;;
67585;SDS011;55785;47.946;20.540;2023-07-02T06:43:08;6.88;;;5.93;;
67585;SDS011;55785;47.946;20.540;2023-07-02T06:45:33;6.70;;;6.00;;
67585;SDS011;55785;47.946;20.540;2023-07-02T06:47:59;8.15;;;6.13;;
67585;SDS011;55785;47.946;20.540;2023-07-02T06:50:24;7.65;;;6.07;;
67585;SDS011;55785;47.946;20.540;2023-07-02T06:52:49;8.68;;;6.28;;
67585;SDS011;55785;47.946;20.540;2023-07-02T06:55:15;10.23;;;5.55;;
67585;SDS011;55785;47.946;20.540;2023-07-02T06:57:44;7.72;;;5.68;;
67585;SDS011;55785;47.946;20.540;2023-07-02T07:00:10;6.65;;;5.53;;
67585;SDS011;55785;47.946;20.540;2023-07-02T07:02:36;6.97;;;5.95;;
67585;SDS011;55785;47.946;20.540;2023-07-02T07:05:01;6.25;;;5.57;;
67585;SDS011;55785;47.946;20.540;2023-07-02T07:07:27;8.68;;;5.63;;
67585;SDS011;55785;47.946;20.540;2023-07-02T07:09:52;8.45;;;5.85;;
67585;SDS011;55785;47.946;20.540;2023-07-02T07:12:17;8.13;;;5.80;;
67585;SDS011;55785;47.946;20.540;2023-07-02T07:14:43;6.70;;;5.75;;
67585;SDS011;55785;47.946;20.540;2023-07-02T07:17:08;6.93;;;5.32;;
67585;SDS011;55785;47.946;20.540;2023-07-02T07:19:33;6.60;;;5.30;;
67585;SDS011;55785;47.946;20.540;2023-07-02T07:21:59;6.85;;;5.30;;
67585;SDS011;55785;47.946;20.540;2023-07-02T07:24:24;7.13;;;6.05;;
67585;SDS011;55785;47.946;20.540;2023-07-02T07:26:49;6.28;;;5.55;;
67585;SDS011;55785;47.946;20.540;2023-07-02T07:29:15;9.00;;;6.10;;
67585;SDS011;55785;47.946;20.540;2023-07-02T07:31:40;6.45;;;5.60;;
67585;SDS011;55785;47.946;20.540;2023-07-02T07:34:11;6.53;;;5.57;;
67585;SDS011;55785;47.946;20.540;2023-07-02T07:36:37;8.20;;;5.75;;
67585;SDS011;55785;47.946;20.540;2023-07-02T07:39:08;10.00;;;5.30;;
67585;SDS011;55785;47.946;20.540;2023-07-02T07:41:33;8.10;;;5.28;;
67585;SDS011;55785;47.946;20.540;2023-07-02T07:43:58;6.88;;;5.28;;
67585;SDS011;55785;47.946;20.540;2023-07-02T07:46:24;5.90;;;5.30;;
67585;SDS011;55785;47.946;20.540;2023-07-02T07:48:56;7.18;;;5.50;;
67585;SDS011;55785;47.946;20.540;2023-07-02T07:51:22;5.95;;;5.30;;
67585;SDS011;55785;47.946;20.540;2023-07-02T07:53:47;6.65;;;5.22;;
67585;SDS011;55785;47.946;20.540;2023-07-02T07:56:15;6.18;;;5.38;;
67585;SDS011;55785;47.946;20.540;2023-07-02T07:58:44;8.10;;;5.95;;
67585;SDS011;55785;47.946;20.540;2023-07-02T08:01:09;6.15;;;4.85;;
67585;SDS011;55785;47.946;20.540;2023-07-02T08:03:36;6.80;;;5.18;;
67585;SDS011;55785;47.946;20.540;2023-07-02T08:06:23;7.00;;;5.28;;
67585;SDS011;55785;47.946;20.540;2023-07-02T08:08:48;6.32;;;5.47;;
67585;SDS011;55785;47.946;20.540;2023-07-02T08:11:13;7.03;;;5.65;;
67585;SDS011;55785;47.946;20.540;2023-07-02T08:13:42;7.43;;;5.32;;
67585;SDS011;55785;47.946;20.540;2023-07-02T08:16:07;8.07;;;5.57;;
67585;SDS011;55785;47.946;20.540;2023-07-02T08:18:36;7.57;;;5.18;;
67585;SDS011;55785;47.946;20.540;2023-07-02T08:21:01;6.38;;;5.70;;
67585;SDS011;55785;47.946;20.540;2023-07-02T08:23:27;6.72;;;5.25;;
67585;SDS011;55785;47.946;20.540;2023-07-02T08:25:52;6.95;;;5.75;;
67585;SDS011;55785;47.946;20.540;2023-07-02T08:28:18;7.40;;;5.50;;
67585;SDS011;55785;47.946;20.540;2023-07-02T08:30:43;7.35;;;5.32;;
67585;SDS011;55785;47.946;20.540;2023-07-02T08:33:11;5.82;;;5.20;;
67585;SDS011;55785;47.946;20.540;2023-07-02T08:35:39;5.85;;;5.28;;
67585;SDS011;55785;47.946;20.540;2023-07-02T08:38:04;7.93;;;6.05;;
67585;SDS011;55785;47.946;20.540;2023-07-02T08:40:33;6.78;;;6.00;;
67585;SDS011;55785;47.946;20.540;2023-07-02T08:42:58;8.15;;;5.88;;
67585;SDS011;55785;47.946;20.540;2023-07-02T08:45:26;6.82;;;5.55;;
67585;SDS011;55785;47.946;20.540;2023-07-02T08:47:55;6.38;;;5.68;;
67585;SDS011;55785;47.946;20.540;2023-07-02T08:50:21;6.20;;;5.60;;
67585;SDS011;55785;47.946;20.540;2023-07-02T08:52:50;6.88;;;5.35;;
67585;SDS011;55785;47.946;20.540;2023-07-02T08:55:15;8.52;;;5.82;;
67585;SDS011;55785;47.946;20.540;2023-07-02T08:57:42;7.55;;;5.78;;
67585;SDS011;55785;47.946;20.540;2023-07-02T09:00:14;5.85;;;5.15;;
67585;SDS011;55785;47.946;20.540;2023-07-02T09:02:39;6.82;;;5.60;;
67585;SDS011;55785;47.946;20.540;2023-07-02T09:05:05;7.68;;;5.85;;
67585;SDS011;55785;47.946;20.540;2023-07-02T09:07:30;7.60;;;5.50;;
67585;SDS011;55785;47.946;20.540;2023-07-02T09:09:56;6.63;;;5.30;;
67585;SDS011;55785;47.946;20.540;2023-07-02T09:12:25;5.30;;;4.80;;
67585;SDS011;55785;47.946;20.540;2023-07-02T09:17:44;6.20;;;4.93;;
67585;SDS011;55785;47.946;20.540;2023-07-02T09:20:09;6.80;;;4.90;;
67585;SDS011;55785;47.946;20.540;2023-07-02T09:22:35;5.38;;;4.40;;
67585;SDS011;55785;47.946;20.540;2023-07-02T09:25:01;5.93;;;4.45;;
67585;SDS011;55785;47.946;20.540;2023-07-02T09:27:34;6.22;;;4.25;;
67585;SDS011;55785;47.946;20.540;2023-07-02T09:30:04;5.45;;;4.20;;
67585;SDS011;55785;47.946;20.540;2023-07-02T09:32:39;6.28;;;4.47;;
67585;SDS011;55785;47.946;20.540;2023-07-02T09:35:05;5.35;;;4.07;;
67585;SDS011;55785;47.946;20.540;2023-07-02T09:37:31;6.55;;;4.28;;
67585;SDS011;55785;47.946;20.540;2023-07-02T09:39:57;7.28;;;4.40;;
67585;SDS011;55785;47.946;20.540;2023-07-02T09:42:24;7.88;;;4.22;;
67585;SDS011;55785;47.946;20.540;2023-07-02T09:44:54;6.38;;;3.92;;
67585;SDS011;55785;47.946;20.540;2023-07-02T09:47:20;6.70;;;4.47;;
67585;SDS011;55785;47.946;20.540;2023-07-02T09:50:03;7.60;;;4.50;;
67585;SDS011;55785;47.946;20.540;2023-07-02T09:52:29;5.82;;;3.88;;
67585;SDS011;55785;47.946;20.540;2023-07-02T09:54:55;8.27;;;4.35;;
67585;SDS011;55785;47.946;20.540;2023-07-02T09:57:21;6.20;;;4.22;;
67585;SDS011;55785;47.946;20.540;2023-07-02T09:59:46;6.57;;;4.03;;
67585;SDS011;55785;47.946;20.540;2023-07-02T10:02:12;7.50;;;4.35;;
67585;SDS011;55785;47.946;20.540;2023-07-02T10:04:41;6.10;;;4.30;;
67585;SDS011;55785;47.946;20.540;2023-07-02T10:07:07;6.75;;;4.07;;
67585;SDS011;55785;47.946;20.540;2023-07-02T10:09:40;7.15;;;4.40;;
67585;SDS011;55785;47.946;20.540;2023-07-02T10:14:49;5.45;;;3.90;;
67585;SDS011;55785;47.946;20.540;2023-07-02T10:17:32;6.03;;;3.65;;
67585;SDS011;55785;47.946;20.540;2023-07-02T10:20:07;5.95;;;4.00;;
67585;SDS011;55785;47.946;20.540;2023-07-02T10:22:49;5.93;;;4.20;;
67585;SDS011;55785;47.946;20.540;2023-07-02T10:28:19;5.90;;;4.07;;
67585;SDS011;55785;47.946;20.540;2023-07-02T10:30:45;6.13;;;4.00;;
67585;SDS011;55785;47.946;20.540;2023-07-02T10:33:11;7.03;;;4.10;;
67585;SDS011;55785;47.946;20.540;2023-07-02T10:35:42;6.22;;;3.75;;
67585;SDS011;55785;47.946;20.540;2023-07-02T10:38:13;6.80;;;4.22;;
67585;SDS011;55785;47.946;20.540;2023-07-02T10:40:45;6.15;;;3.80;;
67585;SDS011;55785;47.946;20.540;2023-07-02T10:43:11;5.63;;;3.70;;
67585;SDS011;55785;47.946;20.540;2023-07-02T10:45:37;7.93;;;3.90;;
67585;SDS011;55785;47.946;20.540;2023-07-02T10:48:03;5.88;;;3.80;;
67585;SDS011;55785;47.946;20.540;2023-07-02T10:50:29;7.95;;;3.90;;
67585;SDS011;55785;47.946;20.540;2023-07-02T10:52:55;6.35;;;3.83;;
67585;SDS011;55785;47.946;20.540;2023-07-02T10:55:21;4.50;;;3.03;;
67585;SDS011;55785;47.946;20.540;2023-07-02T10:57:48;4.70;;;3.50;;
67585;SDS011;55785;47.946;20.540;2023-07-02T11:00:15;6.05;;;3.50;;
67585;SDS011;55785;47.946;20.540;2023-07-02T11:02:40;4.95;;;3.65;;
67585;SDS011;55785;47.946;20.540;2023-07-02T11:05:06;5.72;;;3.60;;
67585;SDS011;55785;47.946;20.540;2023-07-02T11:07:33;5.68;;;3.35;;
67585;SDS011;55785;47.946;20.540;2023-07-02T11:09:58;7.65;;;4.10;;
67585;SDS011;55785;47.946;20.540;2023-07-02T11:12:30;4.35;;;3.35;;
67585;SDS011;55785;47.946;20.540;2023-07-02T11:15:15;5.68;;;3.30;;
67585;SDS011;55785;47.946;20.540;2023-07-02T11:17:42;4.97;;;3.60;;
67585;SDS011;55785;47.946;20.540;2023-07-02T11:20:08;6.72;;;3.58;;
67585;SDS011;55785;47.946;20.540;2023-07-02T11:22:35;5.97;;;3.83;;
67585;SDS011;55785;47.946;20.540;2023-07-02T11:25:17;5.80;;;3.63;;
67585;SDS011;55785;47.946;20.540;2023-07-02T11:27:44;5.80;;;3.50;;
67585;SDS011;55785;47.946;20.540;2023-07-02T11:30:10;4.82;;;3.33;;
67585;SDS011;55785;47.946;20.540;2023-07-02T11:32:49;5.93;;;3.47;;
67585;SDS011;55785;47.946;20.540;2023-07-02T11:35:16;7.97;;;3.70;;
67585;SDS011;55785;47.946;20.540;2023-07-02T11:37:42;4.88;;;3.15;;
67585;SDS011;55785;47.946;20.540;2023-07-02T11:40:08;5.97;;;3.75;;
67585;SDS011;55785;47.946;20.540;2023-07-02T11:42:33;5.85;;;3.40;;
67585;SDS011;55785;47.946;20.540;2023-07-02T11:44:59;4.53;;;2.78;;
67585;SDS011;55785;47.946;20.540;2023-07-02T11:47:24;4.53;;;2.95;;
67585;SDS011;55785;47.946;20.540;2023-07-02T11:49:50;5.40;;;3.15;;
67585;SDS011;55785;47.946;20.540;2023-07-02T11:52:15;4.78;;;2.60;;
67585;SDS011;55785;47.946;20.540;2023-07-02T11:54:40;4.47;;;2.70;;
67585;SDS011;55785;47.946;20.540;2023-07-02T11:57:06;5.60;;;2.92;;
67585;SDS011;55785;47.946;20.540;2023-07-02T11:59:31;5.88;;;2.88;;
67585;SDS011;55785;47.946;20.540;2023-07-02T12:01:56;4.03;;;2.80;;
67585;SDS011;55785;47.946;20.540;2023-07-02T12:04:22;3.55;;;2.40;;
67585;SDS011;55785;47.946;20.540;2023-07-02T12:06:47;4.45;;;2.53;;
67585;SDS011;55785;47.946;20.540;2023-07-02T12:09:12;3.28;;;2.47;;
67585;SDS011;55785;47.946;20.540;2023-07-02T12:11:38;4.15;;;2.53;;
67585;SDS011;55785;47.946;20.540;2023-07-02T12:14:03;4.32;;;2.70;;
67585;SDS011;55785;47.946;20.540;2023-07-02T12:16:28;5.03;;;2.80;;
67585;SDS011;55785;47.946;20.540;2023-07-02T12:18:54;5.15;;;2.50;;
67585;SDS011;55785;47.946;20.540;2023-07-02T12:21:19;5.05;;;2.22;;
67585;SDS011;55785;47.946;20.540;2023-07-02T12:23:45;4.15;;;2.45;;
67585;SDS011;55785;47.946;20.540;2023-07-02T12:26:10;4.60;;;2.47;;
67585;SDS011;55785;47.946;20.540;2023-07-02T12:28:36;4.25;;;2.63;;
67585;SDS011;55785;47.946;20.540;2023-07-02T12:31:01;4.72;;;2.50;;
67585;SDS011;55785;47.946;20.540;2023-07-02T12:33:26;3.78;;;2.40;;
67585;SDS011;55785;47.946;20.540;2023-07-02T12:35:52;4.20;;;2.75;;
67585;SDS011;55785;47.946;20.540;2023-07-02T12:38:17;3.95;;;2.60;;
67585;SDS011;55785;47.946;20.540;2023-07-02T12:40:42;3.80;;;2.50;;
67585;SDS011;55785;47.946;20.540;2023-07-02T12:43:08;4.30;;;3.13;;
67585;SDS011;55785;47.946;20.540;2023-07-02T12:45:33;4.28;;;2.80;;
67585;SDS011;55785;47.946;20.540;2023-07-02T12:47:58;5.65;;;3.10;;
67585;SDS011;55785;47.946;20.540;2023-07-02T12:50:24;4.85;;;2.80;;
67585;SDS011;55785;47.946;20.540;2023-07-02T12:52:49;3.83;;;2.90;;
67585;SDS011;55785;47.946;20.540;2023-07-02T12:55:15;4.93;;;3.33;;
67585;SDS011;55785;47.946;20.540;2023-07-02T12:57:40;5.15;;;2.95;;
67585;SDS011;55785;47.946;20.540;2023-07-02T13:00:05;4.93;;;3.05;;
67585;SDS011;55785;47.946;20.540;2023-07-02T13:02:31;5.07;;;2.83;;
67585;SDS011;55785;47.946;20.540;2023-07-02T13:04:57;4.88;;;2.78;;
67585;SDS011;55785;47.946;20.540;2023-07-02T13:07:22;5.50;;;2.70;;
67585;SDS011;55785;47.946;20.540;2023-07-02T13:09:47;5.45;;;2.40;;
67585;SDS011;55785;47.946;20.540;2023-07-02T13:12:13;4.88;;;2.60;;
67585;SDS011;55785;47.946;20.540;2023-07-02T13:14:38;4.53;;;2.58;;
67585;SDS011;55785;47.946;20.540;2023-07-02T13:17:03;4.55;;;2.70;;
67585;SDS011;55785;47.946;20.540;2023-07-02T13:19:29;4.43;;;2.60;;
67585;SDS011;55785;47.946;20.540;2023-07-02T13:21:54;3.83;;;2.42;;
67585;SDS011;55785;47.946;20.540;2023-07-02T13:24:20;4.93;;;2.60;;
67585;SDS011;55785;47.946;20.540;2023-07-02T13:26:45;3.72;;;2.60;;
67585;SDS011;55785;47.946;20.540;2023-07-02T13:29:10;3.10;;;2.40;;
67585;SDS011;55785;47.946;20.540;2023-07-02T13:31:37;4.50;;;2.67;;
67585;SDS011;55785;47.946;20.540;2023-07-02T13:34:02;4.07;;;2.50;;
67585;SDS011;55785;47.946;20.540;2023-07-02T13:36:27;3.92;;;2.45;;
67585;SDS011;55785;47.946;20.540;2023-07-02T13:38:53;3.60;;;2.38;;
67585;SDS011;55785;47.946;20.540;2023-07-02T13:41:18;4.80;;;2.28;;
67585;SDS011;55785;47.946;20.540;2023-07-02T13:43:44;4.32;;;2.50;;
67585;SDS011;55785;47.946;20.540;2023-07-02T13:46:09;4.13;;;2.38;;
67585;SDS011;55785;47.946;20.540;2023-07-02T13:48:34;3.63;;;2.35;;
67585;SDS011;55785;47.946;20.540;2023-07-02T13:51:00;5.60;;;2.60;;
67585;SDS011;55785;47.946;20.540;2023-07-02T13:53:25;3.33;;;2.65;;
67585;SDS011;55785;47.946;20.540;2023-07-02T13:55:51;3.08;;;2.40;;
67585;SDS011;55785;47.946;20.540;2023-07-02T13:58:16;4.15;;;2.20;;
67585;SDS011;55785;47.946;20.540;2023-07-02T14:00:41;3.60;;;2.40;;
67585;SDS011;55785;47.946;20.540;2023-07-02T14:03:07;3.65;;;2.25;;
67585;SDS011;55785;47.946;20.540;2023-07-02T14:05:32;3.22;;;2.20;;
67585;SDS011;55785;47.946;20.540;2023-07-02T14:07:58;5.78;;;2.22;;
67585;SDS011;55785;47.946;20.540;2023-07-02T14:10:23;3.92;;;2.30;;
67585;SDS011;55785;47.946;20.540;2023-07-02T14:12:49;3.45;;;2.40;;
67585;SDS011;55785;47.946;20.540;2023-07-02T14:15:14;4.25;;;2.30;;
67585;SDS011;55785;47.946;20.540;2023-07-02T14:17:39;3.03;;;2.30;;
67585;SDS011;55785;47.946;20.540;2023-07-02T14:20:06;3.30;;;2.05;;
67585;SDS011;55785;47.946;20.540;2023-07-02T14:22:34;3.33;;;2.30;;
67585;SDS011;55785;47.946;20.540;2023-07-02T14:24:59;4.47;;;2.22;;
67585;SDS011;55785;47.946;20.540;2023-07-02T14:27:24;3.13;;;2.10;;
67585;SDS011;55785;47.946;20.540;2023-07-02T14:29:50;3.63;;;2.20;;
67585;SDS011;55785;47.946;20.540;2023-07-02T14:32:15;3.33;;;1.90;;
67585;SDS011;55785;47.946;20.540;2023-07-02T14:34:41;4.20;;;2.03;;
67585;SDS011;55785;47.946;20.540;2023-07-02T14:37:07;2.88;;;1.95;;